Time;durP1;ratioP1;P1;durP2;ratioP2;P2;SDS_P1;SDS_P2;PMS_P1;PMS_P2;Temp;Humidity;BMP_temperature;BMP_pressure;BME280_temperature;BME280_humidity;BME280_pressure;Samples;Min_cycle;Max_cycle;Signal;HPM_P1;HPM_P2
2023/11/27 00:01:45;;;;;;;37.40;26.00;;;;;;;-2.67;100.00;99824.38;112317;1244;23698;-83
2023/11/27 00:04:24;;;;;;;38.40;26.10;;;;;;;-2.66;100.00;99825.58;112542;1243;21956;-84
2023/11/27 00:07:02;;;;;;;33.00;23.50;;;;;;;-2.64;100.00;99829.17;112177;1242;21978;-81
2023/11/27 00:09:37;;;;;;;36.40;24.20;;;;;;;-2.64;100.00;99828.15;112139;1245;23748;-83
2023/11/27 00:12:14;;;;;;;36.40;25.60;;;;;;;-2.65;100.00;99827.30;112125;1246;22714;-82
2023/11/27 00:14:44;;;;;;;34.50;23.90;;;;;;;-2.65;100.00;99829.33;112198;1246;22951;-81
2023/11/27 00:17:27;;;;;;;37.40;26.00;;;;;;;-2.69;100.00;99832.20;112199;1243;21955;-81
2023/11/27 00:20:01;;;;;;;37.20;26.10;;;;;;;-2.74;100.00;99829.61;112293;1243;23607;-82
2023/11/27 00:22:58;;;;;;;34.20;23.40;;;;;;;-2.80;100.00;99833.64;112892;1232;23026;-83
2023/11/27 00:25:42;;;;;;;36.70;24.80;;;;;;;-2.84;100.00;99838.39;113417;1233;21998;-81
2023/11/27 00:28:11;;;;;;;38.10;23.50;;;;;;;-2.85;100.00;99839.39;113474;1233;24266;-82
2023/11/27 00:30:48;;;;;;;35.60;24.20;;;;;;;-2.86;100.00;99841.77;113616;1233;21947;-79
2023/11/27 00:33:20;;;;;;;33.20;25.10;;;;;;;-2.87;100.00;99847.21;113017;1239;21959;-80
2023/11/27 00:36:05;;;;;;;37.60;25.70;;;;;;;-2.85;100.00;99844.67;112660;1239;21947;-82
2023/11/27 00:38:44;;;;;;;33.70;22.50;;;;;;;-2.87;100.00;99844.15;112224;1245;21982;-82
2023/11/27 00:41:19;;;;;;;39.90;26.00;;;;;;;-2.88;100.00;99846.02;112286;1245;21962;-81
2023/11/27 00:43:58;;;;;;;38.10;24.80;;;;;;;-2.88;100.00;99847.55;111635;1250;23603;-81
2023/11/27 00:46:31;;;;;;;36.60;25.90;;;;;;;-2.87;100.00;99847.05;111362;1256;22068;-82
2023/11/27 00:49:02;;;;;;;36.80;23.30;;;;;;;-2.87;100.00;99843.46;111475;1255;22987;-80
2023/11/27 00:51:35;;;;;;;40.70;26.50;;;;;;;-2.88;100.00;99839.88;111593;1250;23820;-82
2023/11/27 00:54:09;;;;;;;35.40;24.60;;;;;;;-2.90;100.00;99836.80;111833;1249;22053;-80
2023/11/27 00:56:41;;;;;;;39.90;25.20;;;;;;;-2.93;100.00;99835.58;109440;1245;3504469;-82
2023/11/27 00:59:11;;;;;;;38.20;23.80;;;;;;;-2.97;100.00;99830.61;112099;1245;21976;-79
2023/11/27 01:01:41;;;;;;;39.70;25.70;;;;;;;-3.00;100.00;99826.67;112407;1239;21956;-82
2023/11/27 01:04:19;;;;;;;37.80;23.30;;;;;;;-3.03;100.00;99828.18;113148;1233;21926;-80
2023/11/27 01:06:57;;;;;;;33.20;22.90;;;;;;;-3.04;100.00;99829.36;113313;1233;21935;-80
2023/11/27 01:09:26;;;;;;;34.30;22.40;;;;;;;-3.03;100.00;99827.15;113248;1233;23206;-81
2023/11/27 01:12:00;;;;;;;36.00;23.00;;;;;;;-3.04;100.00;99823.73;113415;1233;22979;-84
2023/11/27 01:14:35;;;;;;;32.30;22.80;;;;;;;-3.03;100.00;99825.96;112684;1239;22397;-81
2023/11/27 01:17:10;;;;;;;36.90;23.20;;;;;;;-3.03;100.00;99824.78;113044;1239;21955;-83
2023/11/27 01:19:38;;;;;;;;;;;;;;;-3.02;100.00;99819.66;112287;1245;23075;-80
2023/11/27 01:22:11;;;;;;;31.80;20.30;;;;;;;-3.11;100.00;99817.02;112491;1245;21971;-81
2023/11/27 01:24:48;;;;;;;30.90;21.30;;;;;;;-3.14;100.00;99814.61;112119;1245;22935;-81
2023/11/27 01:27:19;;;;;;;31.20;20.70;;;;;;;-3.16;100.00;99807.80;111655;1252;21993;-82
2023/11/27 01:29:57;;;;;;;32.10;21.10;;;;;;;-3.14;100.00;99804.75;111697;1251;21974;-82
2023/11/27 01:32:30;;;;;;;28.40;20.90;;;;;;;-3.10;100.00;99807.68;111552;1251;21969;-81
2023/11/27 01:35:02;;;;;;;34.50;22.70;;;;;;;-3.06;100.00;99807.05;111492;1251;21962;-83
2023/11/27 01:37:43;;;;;;;38.80;27.30;;;;;;;-3.05;100.00;99802.28;111375;1255;21960;-81
2023/11/27 01:40:25;;;;;;;44.90;29.20;;;;;;;-3.07;100.00;99802.77;111573;1255;21973;-81
2023/11/27 01:43:02;;;;;;;42.10;28.30;;;;;;;-3.05;100.00;99799.90;111391;1255;21997;-82
2023/11/27 01:45:32;;;;;;;46.00;29.70;;;;;;;-3.03;100.00;99796.18;111694;1246;21948;-80
2023/11/27 01:48:01;;;;;;;48.50;31.40;;;;;;;-3.00;100.00;99790.73;112020;1246;23580;-80
2023/11/27 01:50:37;;;;;;;48.80;32.30;;;;;;;-2.99;100.00;99788.55;112821;1239;21956;-82
2023/11/27 01:53:09;;;;;;;42.80;31.00;;;;;;;-2.96;100.00;99785.67;112458;1243;21957;-81
2023/11/27 01:55:38;;;;;;;50.30;33.30;;;;;;;-2.95;100.00;99787.89;112790;1238;21944;-82
2023/11/27 01:58:08;;;;;;;44.80;31.30;;;;;;;-2.97;100.00;99790.59;113246;1238;22003;-84
2023/11/27 02:00:38;;;;;;;46.90;32.90;;;;;;;-3.01;100.00;99790.06;113206;1238;21964;-80
2023/11/27 02:03:09;;;;;;;46.60;30.80;;;;;;;-3.09;100.00;99779.10;113273;1238;21959;-81
2023/11/27 02:05:38;;;;;;;40.70;28.50;;;;;;;-3.08;100.00;99781.65;113117;1238;23680;-81
2023/11/27 02:08:14;;;;;;;46.80;29.50;;;;;;;-3.11;100.00;99778.73;112714;1238;21950;-82
2023/11/27 02:10:44;;;;;;;44.00;29.70;;;;;;;-3.09;100.00;99777.23;113130;1233;23600;-80
2023/11/27 02:13:14;;;;;;;46.50;30.00;;;;;;;-3.04;100.00;99779.30;113325;1233;22757;-81
2023/11/27 02:15:43;;;;;;;45.50;29.00;;;;;;;-3.00;100.00;99773.72;113509;1233;21947;-82
2023/11/27 02:18:18;;;;;;;;;;;;;;;-2.97;100.00;99775.61;113525;1233;21954;-82
2023/11/27 02:20:47;;;;;;;38.00;24.70;;;;;;;-3.03;100.00;99773.35;112750;1239;21968;-84
2023/11/27 02:23:23;;;;;;;34.40;26.80;;;;;;;-3.01;100.00;99769.29;113084;1239;22062;-80
2023/11/27 02:25:53;;;;;;;36.40;25.50;;;;;;;-2.96;100.00;99767.61;112945;1239;23667;-81
2023/11/27 02:28:37;;;;;;;34.30;26.00;;;;;;;-2.92;100.00;99768.16;112318;1244;21979;-80
2023/11/27 02:31:06;;;;;;;35.20;24.80;;;;;;;-2.94;100.00;99754.52;112246;1244;21983;-83
2023/11/27 02:33:39;;;;;;;34.70;23.00;;;;;;;-2.78;100.00;99765.88;112382;1244;21985;-80
2023/11/27 02:36:09;;;;;;;36.00;23.80;;;;;;;-2.70;100.00;99761.00;112241;1244;23690;-83
2023/11/27 02:38:38;;;;;;;32.40;22.60;;;;;;;-2.62;100.00;99755.27;112375;1241;21979;-82
2023/11/27 02:41:11;;;;;;;32.80;23.50;;;;;;;-2.56;100.00;99752.22;112741;1241;22835;-80
2023/11/27 02:43:40;;;;;;;34.40;22.20;;;;;;;-2.52;100.00;99749.52;112711;1241;21952;-81
2023/11/27 02:46:12;;;;;;;32.40;22.10;;;;;;;-2.47;100.00;99748.69;113238;1233;21937;-82
2023/11/27 02:48:45;;;;;;;34.50;21.60;;;;;;;-2.41;100.00;99747.20;113188;1238;21946;-81
2023/11/27 02:51:15;;;;;;;32.50;22.80;;;;;;;-2.34;100.00;99748.27;113075;1239;21944;-80
2023/11/27 02:53:47;;;;;;;28.30;22.00;;;;;;;-2.28;100.00;99743.51;113074;1239;22430;-83
2023/11/27 02:56:30;;;;;;;28.90;20.00;;;;;;;-2.22;100.00;99743.70;112147;1245;23024;-84
2023/11/27 02:59:00;;;;;;;29.20;20.60;;;;;;;-2.16;100.00;99745.27;112037;1245;23612;-79
2023/11/27 03:01:29;;;;;;;34.50;23.90;;;;;;;-2.13;100.00;99747.15;112305;1245;23697;-81
2023/11/27 03:03:59;;;;;;;31.70;23.30;;;;;;;-2.12;100.00;99747.84;111904;1250;23742;-80
2023/11/27 03:06:31;;;;;;;36.40;25.30;;;;;;;-2.12;100.00;99752.95;111195;1251;23700;-79
2023/11/27 03:09:04;;;;;;;36.30;23.70;;;;;;;-2.10;100.00;99750.73;111594;1248;22222;-80
2023/11/27 03:11:34;;;;;;;34.30;24.90;;;;;;;-2.07;100.00;99753.83;111480;1251;21965;-81
2023/11/27 03:14:03;;;;;;;30.70;23.00;;;;;;;-2.03;100.00;99753.15;111960;1247;22851;-81
2023/11/27 03:16:36;;;;;;;30.60;22.60;;;;;;;-1.99;100.00;99747.55;112166;1247;22372;-79
2023/11/27 03:19:06;;;;;;;33.90;22.20;;;;;;;-1.95;100.00;99744.66;112200;1246;21962;-80
2023/11/27 03:21:38;;;;;;;28.70;21.00;;;;;;;-1.93;100.00;99744.66;112054;1241;21958;-83
2023/11/27 03:24:10;;;;;;;31.70;21.80;;;;;;;-1.91;100.00;99742.45;112713;1233;21944;-82
2023/11/27 03:26:47;;;;;;;27.80;21.10;;;;;;;-1.87;100.00;99737.01;113473;1233;22689;-84
2023/11/27 03:29:16;;;;;;;28.90;21.90;;;;;;;-1.84;100.00;99735.66;112956;1240;21957;-82
2023/11/27 03:31:56;;;;;;;31.70;21.60;;;;;;;-1.82;100.00;99733.11;112360;1241;21945;-82
2023/11/27 03:34:26;;;;;;;29.90;19.80;;;;;;;-1.80;100.00;99732.94;112895;1240;22023;-83
2023/11/27 03:36:56;;;;;;;27.40;19.50;;;;;;;-1.77;100.00;99729.20;112033;1246;22404;-81
2023/11/27 03:39:28;;;;;;;33.90;22.70;;;;;;;-1.74;100.00;99722.02;112330;1246;22015;-81
2023/11/27 03:42:04;;;;;;;34.70;21.30;;;;;;;-1.72;100.00;99718.95;112036;1246;22823;-80
2023/11/27 03:44:37;;;;;;;28.10;20.80;;;;;;;-1.72;100.00;99719.14;112279;1246;21973;-81
2023/11/27 03:47:08;;;;;;;33.90;23.00;;;;;;;-1.72;100.00;99718.97;112586;1239;23571;-82
2023/11/27 03:49:41;;;;;;;32.60;22.40;;;;;;;-1.74;100.00;99718.96;112967;1239;24369;-84
2023/11/27 03:52:11;;;;;;;26.90;20.30;;;;;;;-1.74;100.00;99718.62;112710;1239;21932;-82
2023/11/27 03:54:43;;;;;;;33.90;21.30;;;;;;;-1.73;100.00;99719.81;113168;1233;23604;-82
2023/11/27 03:57:26;;;;;;;35.00;23.00;;;;;;;-1.71;100.00;99716.92;113490;1233;21954;-82
2023/11/27 03:59:56;;;;;;;30.30;22.70;;;;;;;-1.70;100.00;99722.39;113369;1233;23007;-82
2023/11/27 04:02:26;;;;;;;32.70;21.70;;;;;;;-1.70;100.00;99718.63;113314;1233;21919;-82
2023/11/27 04:05:06;;;;;;;30.10;21.90;;;;;;;-1.68;100.00;99720.34;113495;1233;21956;-82
2023/11/27 04:07:39;;;;;;;35.00;22.50;;;;;;;-1.68;100.00;99718.45;113486;1233;23591;-81
2023/11/27 04:10:15;;;;;;;29.00;21.70;;;;;;;-1.69;100.00;99716.92;113487;1233;21979;-83
2023/11/27 04:12:46;;;;;;;30.40;21.60;;;;;;;-1.69;100.00;99718.45;113687;1233;21963;-82
2023/11/27 04:15:16;;;;;;;25.60;19.50;;;;;;;-1.68;100.00;99718.97;113484;1233;23683;-82
2023/11/27 04:18:02;;;;;;;30.20;21.20;;;;;;;-1.65;100.00;99719.15;113424;1233;21973;-81
2023/11/27 04:20:34;;;;;;;27.80;23.30;;;;;;;-1.62;100.00;99720.35;113613;1233;21937;-80
2023/11/27 04:23:08;;;;;;;31.30;21.50;;;;;;;-1.59;100.00;99722.40;113422;1233;21941;-83
2023/11/27 04:25:37;;;;;;;36.00;25.00;;;;;;;-1.55;100.00;99721.38;113466;1233;23698;-81
2023/11/27 04:28:06;;;;;;;36.80;26.50;;;;;;;-1.55;100.00;99713.88;113632;1233;23000;-82
2023/11/27 04:30:39;;;;;;;27.60;20.50;;;;;;;-1.45;100.00;99721.22;113628;1233;23649;-84
2023/11/27 04:33:08;;;;;;;28.50;20.60;;;;;;;-1.41;100.00;99720.37;113207;1233;22013;-80
2023/11/27 04:35:39;;;;;;;29.50;20.90;;;;;;;-1.41;100.00;99713.02;113116;1240;23592;-83
2023/11/27 04:38:15;;;;;;;28.90;21.20;;;;;;;-1.35;100.00;99714.40;112805;1239;22963;-82
2023/11/27 04:40:47;;;;;;;27.80;21.20;;;;;;;-1.33;100.00;99710.81;112844;1239;21959;-83
2023/11/27 04:43:17;;;;;;;23.50;17.90;;;;;;;-1.29;100.00;99709.11;112700;1240;21970;-81
2023/11/27 04:45:49;;;;;;;23.40;18.60;;;;;;;-1.26;100.00;99704.66;112777;1240;22083;-84
2023/11/27 04:48:21;;;;;;;25.70;18.10;;;;;;;-1.21;100.00;99706.04;112793;1237;21972;-82
2023/11/27 04:50:56;;;;;;;25.10;19.00;;;;;;;-1.18;100.00;99706.71;112996;1240;21981;-81
2023/11/27 04:53:32;;;;;;;23.90;17.20;;;;;;;-1.14;100.00;99706.38;113198;1233;22383;-83
2023/11/27 04:56:05;;;;;;;26.10;18.60;;;;;;;-1.14;100.00;99702.80;112910;1241;21942;-82
2023/11/27 04:58:39;;;;;;;24.50;17.50;;;;;;;-1.12;100.00;99703.64;112933;1241;21953;-83
2023/11/27 05:01:08;;;;;;;24.30;17.40;;;;;;;-1.17;100.00;99695.63;112451;1244;23715;-82
2023/11/27 05:03:39;;;;;;;25.60;17.20;;;;;;;-1.10;100.00;99703.98;112715;1243;23021;-84
2023/11/27 05:06:14;;;;;;;22.90;16.80;;;;;;;-1.09;100.00;99702.28;112539;1244;22058;-84
2023/11/27 05:08:45;;;;;;;25.70;18.20;;;;;;;-1.08;100.00;99703.30;112592;1244;22834;-85
2023/11/27 05:11:20;;;;;;;22.60;17.00;;;;;;;-1.06;100.00;99703.64;112496;1244;21973;-85
2023/11/27 05:13:50;;;;;;;25.40;16.90;;;;;;;-1.04;100.00;99706.20;112697;1239;22430;-84
2023/11/27 05:16:21;;;;;;;25.40;20.20;;;;;;;-1.01;100.00;99707.90;113055;1239;21965;-83
2023/11/27 05:18:51;;;;;;;38.40;28.80;;;;;;;-0.98;100.00;99705.67;112880;1233;22700;-80
2023/11/27 05:21:21;;;;;;;31.00;22.40;;;;;;;-0.95;100.00;99701.07;113869;1233;21955;-83
2023/11/27 05:23:53;;;;;;;26.40;19.60;;;;;;;-0.90;100.00;99696.61;112906;1239;21985;-85
2023/11/27 05:26:26;;;;;;;20.30;15.20;;;;;;;-0.87;100.00;99696.78;112755;1239;21961;-83
2023/11/27 05:28:59;;;;;;;21.20;15.80;;;;;;;-0.84;100.00;99696.77;112822;1239;22410;-82
2023/11/27 05:31:28;;;;;;;24.50;16.30;;;;;;;-0.81;100.00;99704.30;113150;1239;22955;-82
2023/11/27 05:34:03;;;;;;;19.20;14.80;;;;;;;-0.78;100.00;99708.38;113139;1233;22235;-82
2023/11/27 05:36:38;;;;;;;26.40;15.80;;;;;;;-0.79;100.00;99703.77;112656;1244;22018;-81
2023/11/27 05:39:10;;;;;;;21.10;16.40;;;;;;;-0.73;100.00;99709.74;111930;1248;21972;-80
2023/11/27 05:41:42;;;;;;;19.30;14.00;;;;;;;-0.70;100.00;99715.04;112155;1243;22806;-82
2023/11/27 05:44:17;;;;;;;19.80;15.90;;;;;;;-0.69;100.00;99713.48;112586;1243;23578;-79
2023/11/27 05:46:47;;;;;;;22.50;16.10;;;;;;;-0.67;100.00;99716.39;112336;1243;21949;-82
2023/11/27 05:49:20;;;;;;;25.50;17.00;;;;;;;-0.65;100.00;99717.58;112475;1243;22232;-82
2023/11/27 05:51:51;;;;;;;22.60;17.00;;;;;;;-0.63;100.00;99716.89;111685;1251;22638;-80
2023/11/27 05:54:26;;;;;;;23.40;17.60;;;;;;;-0.61;100.00;99715.69;111476;1250;21989;-82
2023/11/27 05:56:56;;;;;;;25.50;19.00;;;;;;;-0.58;100.00;99713.64;112049;1246;21981;-80
2023/11/27 05:59:28;;;;;;;27.90;19.60;;;;;;;-0.54;100.00;99714.48;112391;1246;21988;-82
2023/11/27 06:02:03;;;;;;;24.20;20.50;;;;;;;-0.52;100.00;99709.00;112327;1246;21949;-82
2023/11/27 06:04:37;;;;;;;24.50;20.90;;;;;;;-0.50;100.00;99706.25;112285;1246;21957;-82
2023/11/27 06:07:07;;;;;;;23.80;19.10;;;;;;;-0.47;100.00;99710.52;112091;1246;22505;-83
2023/11/27 06:09:37;;;;;;;20.10;17.90;;;;;;;-0.46;100.00;99713.61;112532;1239;22063;-83
2023/11/27 06:12:08;;;;;;;20.90;17.80;;;;;;;-0.45;100.00;99714.29;112554;1239;21966;-81
2023/11/27 06:14:39;;;;;;;20.20;18.00;;;;;;;-0.46;100.00;99717.53;113129;1239;21944;-83
2023/11/27 06:17:14;;;;;;;19.50;17.50;;;;;;;-0.46;100.00;99717.54;112964;1239;21955;-84
2023/11/27 06:19:48;;;;;;;19.80;17.70;;;;;;;-0.47;100.00;99714.98;112804;1239;23576;-81
2023/11/27 06:22:19;;;;;;;22.10;18.20;;;;;;;-0.46;100.00;99715.32;113151;1239;23754;-80
2023/11/27 06:24:51;;;;;;;21.70;19.20;;;;;;;-0.43;100.00;99710.86;112131;1245;22951;-83
2023/11/27 06:27:25;;;;;;;28.20;22.10;;;;;;;-0.45;100.00;99712.92;112121;1245;21949;-80
2023/11/27 06:29:58;;;;;;;27.80;22.10;;;;;;;-0.46;100.00;99707.78;112300;1245;23036;-79
2023/11/27 06:32:35;;;;;;;25.10;21.70;;;;;;;-0.46;100.00;99710.00;112292;1245;23011;-79
2023/11/27 06:35:11;;;;;;;20.40;18.20;;;;;;;-0.52;100.00;99701.98;111628;1251;21980;-81
2023/11/27 06:37:46;;;;;;;23.20;20.80;;;;;;;-0.49;100.00;99710.88;111942;1247;21928;-79
2023/11/27 06:40:25;;;;;;;25.20;22.60;;;;;;;-0.49;100.00;99709.50;112238;1247;24305;-80
2023/11/27 06:43:10;;;;;;;28.40;25.10;;;;;;;-0.47;100.00;99700.77;112450;1241;22251;-79
2023/11/27 06:45:54;;;;;;;29.20;24.60;;;;;;;-0.45;100.00;99696.85;112789;1241;22007;-82
2023/11/27 06:48:29;;;;;;;27.90;22.10;;;;;;;-0.44;100.00;99698.89;112935;1241;23603;-81
2023/11/27 06:50:58;;;;;;;31.00;24.30;;;;;;;-0.44;100.00;99698.70;112512;1245;22814;-80
2023/11/27 06:53:31;;;;;;;30.40;26.30;;;;;;;-0.45;100.00;99695.81;112631;1238;22012;-81
2023/11/27 06:56:00;;;;;;;29.60;26.40;;;;;;;-0.43;100.00;99696.50;112583;1242;23720;-80
2023/11/27 06:58:35;;;;;;;29.50;25.80;;;;;;;-0.42;100.00;99694.77;112221;1247;23785;-78
2023/11/27 07:01:18;;;;;;;30.30;26.30;;;;;;;-0.42;100.00;99694.79;112123;1247;22266;-79
2023/11/27 07:03:48;;;;;;;30.70;26.40;;;;;;;-0.43;100.00;99697.35;112325;1247;21996;-83
2023/11/27 07:06:59;;;;;;;34.20;25.80;;;;;;;-0.37;100.00;99698.02;111502;1250;21963;-87
2023/11/27 07:09:40;;;;;;;30.70;24.50;;;;;;;-0.31;100.00;99704.15;111541;1250;21968;-86
2023/11/27 07:12:37;;;;;;;27.00;22.50;;;;;;;-0.26;100.00;99703.27;111638;1249;21962;-78
2023/11/27 07:15:11;;;;;;;25.10;21.80;;;;;;;-0.24;100.00;99704.80;111899;1246;21997;-78
2023/11/27 07:17:53;;;;;;;25.90;22.90;;;;;;;-0.24;100.00;99701.55;112390;1239;22551;-80
2023/11/27 07:20:42;;;;;;;25.40;22.70;;;;;;;-0.21;100.00;99698.96;112104;1244;21956;-82
2023/11/27 07:23:16;;;;;;;31.10;24.50;;;;;;;-0.20;100.00;99701.70;111966;1247;22892;-80
2023/11/27 07:25:56;;;;;;;31.10;25.10;;;;;;;-0.17;100.00;99702.37;112719;1241;22629;-80
2023/11/27 07:28:34;;;;;;;27.30;24.30;;;;;;;-0.16;100.00;99699.13;112709;1241;21980;-81
2023/11/27 07:31:09;;;;;;;29.50;24.10;;;;;;;-0.16;100.00;99696.54;112049;1244;22006;-81
2023/11/27 07:33:39;;;;;;;27.40;21.80;;;;;;;-0.16;100.00;99694.48;112132;1244;21964;-80
2023/11/27 07:36:21;;;;;;;30.30;23.50;;;;;;;-0.13;100.00;99693.98;112329;1244;22077;-80
2023/11/27 07:38:54;;;;;;;31.60;23.00;;;;;;;-0.12;100.00;99698.06;112544;1238;21940;-79
2023/11/27 07:41:23;;;;;;;30.20;24.50;;;;;;;-0.11;100.00;99699.95;112909;1238;23030;-79
2023/11/27 07:43:59;;;;;;;27.60;24.30;;;;;;;-0.06;100.00;99705.91;113230;1239;21945;-80
2023/11/27 07:46:36;;;;;;;31.50;24.20;;;;;;;-0.05;100.00;99711.04;112990;1242;22699;-78
2023/11/27 07:49:08;;;;;;;34.30;24.40;;;;;;;-0.05;100.00;99711.21;112705;1238;22699;-82
2023/11/27 07:51:51;;;;;;;28.80;24.20;;;;;;;-0.05;100.00;99710.02;113018;1238;21975;-82
2023/11/27 07:54:35;;;;;;;35.60;25.30;;;;;;;-0.08;100.00;99707.80;112873;1238;23017;-79
2023/11/27 07:57:09;;;;;;;32.80;23.00;;;;;;;-0.07;100.00;99707.27;113255;1238;21974;-80
2023/11/27 07:59:47;;;;;;;31.50;23.90;;;;;;;-0.06;100.00;99707.63;113369;1238;21972;-80
2023/11/27 08:02:25;;;;;;;28.30;22.20;;;;;;;-0.06;100.00;99708.48;113122;1238;22020;-83
2023/11/27 08:05:03;;;;;;;23.80;20.00;;;;;;;-0.06;100.00;99707.96;113165;1233;22828;-81
2023/11/27 08:07:51;;;;;;;30.80;23.80;;;;;;;-0.04;100.00;99713.60;113659;1233;23672;-82
2023/11/27 08:10:30;;;;;;;29.30;24.40;;;;;;;-0.01;100.00;99715.46;113472;1233;21949;-83
2023/11/27 08:13:09;;;;;;;29.00;25.50;;;;;;;0.03;100.00;99712.04;113385;1233;23737;-83
2023/11/27 08:15:47;;;;;;;28.50;23.70;;;;;;;-0.01;100.00;99704.35;113546;1232;23727;-83
2023/11/27 08:18:22;;;;;;;27.10;24.20;;;;;;;0.02;100.00;99707.08;113578;1233;21975;-83
2023/11/27 08:20:54;;;;;;;24.50;21.90;;;;;;;0.13;100.00;99718.14;113490;1229;21966;-81
2023/11/27 08:23:29;;;;;;;25.20;21.20;;;;;;;0.15;100.00;99720.02;113549;1233;22951;-83
2023/11/27 08:26:06;;;;;;;22.90;20.50;;;;;;;0.16;100.00;99719.14;113746;1233;21964;-82
2023/11/27 08:28:39;;;;;;;24.40;21.10;;;;;;;0.17;100.00;99715.89;113516;1233;21970;-83
2023/11/27 08:31:11;;;;;;;26.30;22.70;;;;;;;0.15;100.00;99716.23;113286;1233;22998;-84
2023/11/27 08:33:45;;;;;;;24.80;22.20;;;;;;;0.04;100.00;99700.73;113466;1233;22711;-82
2023/11/27 08:37:16;;;;;;;28.60;24.10;;;;;;;0.02;100.00;99700.57;113527;1233;22396;-79
2023/11/27 08:39:48;;;;;;;24.80;21.90;;;;;;;0.13;100.00;99714.20;113423;1233;21964;-80
2023/11/27 08:42:35;;;;;;;;;;;;;;;;;;;;;
2023/11/27 08:45:27;;;;;;;27.10;22.70;;;;;;;0.12;100.00;99716.09;113147;1239;21952;-80
2023/11/27 08:48:01;;;;;;;23.00;20.70;;;;;;;0.12;100.00;99716.95;113097;1239;21945;-82
2023/11/27 08:50:50;;;;;;;22.70;19.30;;;;;;;0.13;100.00;99714.03;112827;1239;22488;-81
2023/11/27 08:53:30;;;;;;;23.00;20.60;;;;;;;0.16;100.00;99711.27;112539;1245;22186;-79
2023/11/27 08:56:15;;;;;;;23.90;21.40;;;;;;;0.25;100.00;99708.14;112505;1245;24302;-80
2023/11/27 08:59:20;;;;;;;24.60;21.40;;;;;;;0.33;100.00;99705.70;112702;1245;22009;-83
2023/11/27 09:02:07;;;;;;;24.60;21.90;;;;;;;0.33;100.00;99690.64;112396;1245;23058;-81
2023/11/27 09:04:43;;;;;;;25.50;22.80;;;;;;;0.54;100.00;99712.23;111626;1250;21996;-81
2023/11/27 09:08:00;;;;;;;24.40;21.80;;;;;;;0.63;100.00;99713.37;111608;1250;23024;-81
2023/11/27 09:11:34;;;;;;;27.70;22.20;;;;;;;0.64;100.00;99706.16;111224;1253;23034;-81
2023/11/27 09:14:12;;;;;;;26.30;22.10;;;;;;;0.67;100.00;99707.52;111003;1259;23620;-82
2023/11/27 09:17:20;;;;;;;25.20;22.70;;;;;;;0.69;100.00;99703.39;111211;1259;22143;-81
2023/11/27 09:21:01;;;;;;;29.60;22.50;;;;;;;0.74;100.00;99701.98;111249;1259;21973;-81
2023/11/27 09:28:13;;;;;;;24.20;19.80;;;;;;;0.96;100.00;99700.75;111244;1257;21984;-83
2023/11/27 09:35:55;;;;;;;22.60;20.30;;;;;;;1.02;100.00;99688.55;110014;1267;21995;-82
2023/11/27 09:38:58;;;;;;;23.90;21.40;;;;;;;1.00;100.00;99687.87;109901;1267;22006;-80
2023/11/27 09:41:32;;;;;;;27.20;24.30;;;;;;;1.00;100.00;99684.27;109809;1263;23763;-82
2023/11/27 09:44:10;;;;;;;23.70;21.30;;;;;;;0.99;100.00;99682.92;110522;1263;23590;-84
2023/11/27 09:46:50;;;;;;;26.80;23.10;;;;;;;0.98;100.00;99680.20;110203;1260;21981;-80
2023/11/27 09:49:46;;;;;;;27.00;24.10;;;;;;;0.97;100.00;99676.43;111022;1257;23040;-81
2023/11/27 09:53:08;;;;;;;28.30;21.80;;;;;;;1.01;100.00;99667.48;111197;1258;21996;-80
2023/11/27 09:55:47;;;;;;;25.90;20.70;;;;;;;1.13;100.00;99665.29;111123;1250;21986;-81
2023/11/27 09:58:42;;;;;;;27.20;20.80;;;;;;;1.36;100.00;99664.20;110819;1257;22072;-82
2023/11/27 10:01:27;;;;;;;23.50;20.60;;;;;;;1.63;100.00;99657.37;110680;1262;21978;-84
2023/11/27 10:04:11;;;;;;;24.80;20.10;;;;;;;1.90;100.00;99652.55;110627;1259;21983;-84
2023/11/27 10:06:52;;;;;;;;;;;;;;;2.09;100.00;99651.59;111486;1251;21980;-82
2023/11/27 10:09:26;;;;;;;21.80;18.90;;;;;;;2.20;100.00;99651.27;111673;1251;21967;-83
2023/11/27 10:12:12;;;;;;;25.70;20.70;;;;;;;2.40;100.00;99645.46;111858;1244;21959;-80
2023/11/27 10:15:17;;;;;;;38.10;29.30;;;;;;;2.63;100.00;99639.25;112131;1244;23735;-82
2023/11/27 10:17:50;;;;;;;27.30;23.60;;;;;;;2.69;100.00;99613.23;112790;1239;23806;-79
2023/11/27 10:20:35;;;;;;;24.80;22.20;;;;;;;2.84;100.00;99638.22;113092;1239;23022;-78
2023/11/27 10:23:13;;;;;;;30.10;23.80;;;;;;;2.80;100.00;99638.11;112051;1244;23690;-84
2023/11/27 10:25:43;;;;;;;38.60;29.90;;;;;;;2.78;100.00;99640.21;112489;1244;21984;-78
2023/11/27 10:28:20;;;;;;;30.10;25.90;;;;;;;2.79;100.00;99637.61;111950;1249;22061;-79
2023/11/27 10:31:06;;;;;;;;;;;;;;;;;;;;;
2023/11/27 10:33:40;;;;;;;30.20;23.60;;;;;;;2.77;100.00;99634.39;111362;1253;22018;-78
2023/11/27 10:36:35;;;;;;;30.10;26.90;;;;;;;2.75;100.00;99632.87;111549;1249;21956;-83
2023/11/27 10:39:18;;;;;;;29.20;25.20;;;;;;;2.73;100.00;99633.09;111393;1254;22080;-81
2023/11/27 10:42:43;;;;;;;25.80;22.30;;;;;;;2.68;100.00;99632.82;111558;1249;23616;-82
2023/11/27 10:45:52;;;;;;;36.00;30.00;;;;;;;2.68;100.00;99629.39;111443;1253;24519;-82
2023/11/27 10:49:07;;;;;;;33.20;29.40;;;;;;;2.69;100.00;99626.98;111180;1258;22442;-84
2023/11/27 10:52:17;;;;;;;;;;;;;;;;;;;;;
2023/11/27 10:54:59;;;;;;;32.90;28.70;;;;;;;2.59;100.00;99610.65;111334;1256;22009;-80
2023/11/27 10:57:42;;;;;;;36.80;32.90;;;;;;;2.50;100.00;99610.98;111456;1253;22042;-79
2023/11/27 11:00:28;;;;;;;39.50;35.50;;;;;;;2.40;100.00;99603.93;111335;1253;21937;-85
2023/11/27 11:03:22;;;;;;;38.40;34.10;;;;;;;2.28;100.00;99601.70;111572;1253;23063;-79
2023/11/27 11:05:57;;;;;;;47.00;40.80;;;;;;;2.25;100.00;99597.45;111531;1253;23667;-80
2023/11/27 11:08:52;;;;;;;45.40;40.40;;;;;;;2.24;100.00;99596.97;111580;1252;22066;-80
2023/11/27 11:11:35;;;;;;;37.00;33.00;;;;;;;2.21;100.00;99594.96;111490;1253;22346;-79
2023/11/27 11:14:13;;;;;;;33.90;29.80;;;;;;;2.13;100.00;99593.36;111615;1248;21972;-80
2023/11/27 11:17:08;;;;;;;34.60;30.80;;;;;;;2.02;100.00;99593.34;111970;1241;21959;-80
2023/11/27 11:20:13;;;;;;;36.60;32.10;;;;;;;1.93;100.00;99591.42;111708;1248;22319;-79
2023/11/27 11:23:25;;;;;;;39.60;33.90;;;;;;;1.77;100.00;99588.39;111646;1247;22421;-79
2023/11/27 11:27:00;;;;;;;38.60;31.90;;;;;;;1.64;100.00;99586.86;112488;1240;21961;-82
2023/11/27 11:31:02;;;;;;;;;;;;;;;;;;;;;
2023/11/27 11:39:25;;;;;;;;;;;;;;;;;;;;;
2023/11/27 11:43:12;;;;;;;;;;;;;;;;;;;;;
2023/11/27 11:46:25;;;;;;;34.90;28.90;;;;;;;1.22;100.00;99592.36;109280;1273;22002;-79
2023/11/27 11:50:32;;;;;;;39.60;33.70;;;;;;;1.23;100.00;99586.84;109450;1273;21996;-80
2023/11/27 11:54:09;;;;;;;;;;;;;;;;;;;;;
2023/11/27 11:58:13;;;;;;;38.10;32.50;;;;;;;0.98;100.00;99579.77;109189;1270;21990;-80
2023/11/27 12:02:14;;;;;;;;;;;;;;;;;;;;;
2023/11/27 12:21:08;;;;;;;41.60;37.30;;;;;;;2.47;100.00;99556.62;110949;1253;548542;-79
2023/11/27 12:25:18;;;;;;;;;;;;;;;;;;;;;
2023/11/27 12:30:13;;;;;;;;;;;;;;;;;;;;;
2023/11/27 12:34:02;;;;;;;51.90;41.00;;;;;;;1.58;100.00;99562.92;109862;1266;23611;-79
2023/11/27 12:49:01;;;;;;;50.90;44.50;;;;;;;2.94;100.00;99540.18;108074;1291;548239;-81
2023/11/27 12:54:31;;;;;;;;;;;;;;;;;;;;;
2023/11/27 12:57:38;;;;;;;;;;;;;;;;;;;;;
2023/11/27 13:05:37;;;;;;;;;;;;;;;1.32;100.00;99532.06;107557;1298;22157;-81
2023/11/27 13:08:49;;;;;;;;;;;;;;;;;;;;;
2023/11/27 13:13:20;;;;;;;;;;;;;;;;;;;;;
2023/11/27 13:18:15;;;;;;;;;;;;;;;0.86;100.00;99524.06;108625;1289;23065;-80
2023/11/27 13:22:05;;;;;;;;;;;;;;;;;;;;;
2023/11/27 13:37:15;;;;;;;54.20;48.60;;;;;;;2.33;100.00;99513.63;110566;1261;549095;-79
2023/11/27 13:41:56;;;;;;;;;;;;;;;;;;;;;
2023/11/27 13:49:41;;;;;;;81.10;60.50;;;;;;;1.09;100.00;99508.02;109424;1273;21984;-82